EKAH/AAR METAR and TAF weather

Enter ICAO airport designator
Station Type Date Time Source
EKAH METAR 2020/02/27 13:20 UTC NOAA

EKAH 271320Z AUTO 25004KT 220V280 9999NDV BKN011/// 04/02 Q0996


Station Type Date Time Source
EKAH Decoded METAR 2020/02/27 13:20 UTC NOAA

Tirstrup, Denmark (EKAH) 56-18N 010-37E 25M
Feb 27, 2020 - 08:20 AM EST / 2020.02.27 1320 UTC
Wind: from the WSW (250 degrees) at 5 MPH (4 KT) (direction variable):0
Sky conditions: mostly cloudy
Temperature: 39 F (4 C)
Dew Point: 35 F (2 C)
Relative Humidity: 86%
Pressure (altimeter): 29.41 in. Hg (0996 hPa)
ob: EKAH 271320Z AUTO 25004KT 220V280 9999NDV BKN011/// 04/02 Q0996
cycle: 13

Station Type Date Time Source
EKAH TAF 2020/02/27 12:16 UTC NOAA

TAF EKAH 271108Z 2712/2812 23005KT 9999 BKN020
TEMPO 2712/2722 3000 SHRASN BKN008 SCT020CB
BECMG 2722/2724 2000 SHRASN BKN005 BKN020CB
BECMG 2800/2802 9999 NSW BKN020
TEMPO 2802/2809 4000 -SHRASN BKN008 SCT020CB
BECMG 2806/2809 27015KT
TEMPO 2809/2812 SCT020CB

Example: see airport list